sensor_id;sensor_type;location;lat;lon;timestamp;P1;durP1;ratioP1;P2;durP2;ratioP2
72573;SDS011;60603;52.548;13.420;2023-02-12T00:02:08;19.05;;;5.68;;
72573;SDS011;60603;52.548;13.420;2023-02-12T00:04:34;17.13;;;5.50;;
72573;SDS011;60603;52.548;13.420;2023-02-12T00:07:00;14.93;;;5.90;;
72573;SDS011;60603;52.548;13.420;2023-02-12T00:09:26;18.02;;;6.55;;
72573;SDS011;60603;52.548;13.420;2023-02-12T00:11:52;17.63;;;5.47;;
72573;SDS011;60603;52.548;13.420;2023-02-12T00:14:18;14.18;;;4.82;;
72573;SDS011;60603;52.548;13.420;2023-02-12T00:16:44;15.45;;;5.32;;
72573;SDS011;60603;52.548;13.420;2023-02-12T00:19:09;12.45;;;5.75;;
72573;SDS011;60603;52.548;13.420;2023-02-12T00:21:35;19.38;;;6.10;;
72573;SDS011;60603;52.548;13.420;2023-02-12T00:24:02;15.70;;;5.40;;
72573;SDS011;60603;52.548;13.420;2023-02-12T00:26:28;14.55;;;4.70;;
72573;SDS011;60603;52.548;13.420;2023-02-12T00:28:54;18.55;;;6.07;;
72573;SDS011;60603;52.548;13.420;2023-02-12T00:31:25;16.95;;;5.50;;
72573;SDS011;60603;52.548;13.420;2023-02-12T00:33:52;19.05;;;4.85;;
72573;SDS011;60603;52.548;13.420;2023-02-12T00:36:19;12.13;;;4.90;;
72573;SDS011;60603;52.548;13.420;2023-02-12T00:38:47;11.63;;;4.68;;
72573;SDS011;60603;52.548;13.420;2023-02-12T00:41:15;17.70;;;5.47;;
72573;SDS011;60603;52.548;13.420;2023-02-12T00:43:41;17.10;;;5.53;;
72573;SDS011;60603;52.548;13.420;2023-02-12T00:46:07;12.48;;;4.80;;
72573;SDS011;60603;52.548;13.420;2023-02-12T00:48:33;15.38;;;4.53;;
72573;SDS011;60603;52.548;13.420;2023-02-12T00:51:00;16.20;;;5.53;;
72573;SDS011;60603;52.548;13.420;2023-02-12T00:53:26;17.90;;;4.90;;
72573;SDS011;60603;52.548;13.420;2023-02-12T00:55:52;14.02;;;4.63;;
72573;SDS011;60603;52.548;13.420;2023-02-12T00:58:17;15.90;;;4.45;;
72573;SDS011;60603;52.548;13.420;2023-02-12T01:00:43;16.00;;;4.57;;
72573;SDS011;60603;52.548;13.420;2023-02-12T01:03:09;14.10;;;4.88;;
72573;SDS011;60603;52.548;13.420;2023-02-12T01:05:35;16.58;;;4.93;;
72573;SDS011;60603;52.548;13.420;2023-02-12T01:08:01;17.02;;;4.47;;
72573;SDS011;60603;52.548;13.420;2023-02-12T01:10:28;15.50;;;4.78;;
72573;SDS011;60603;52.548;13.420;2023-02-12T01:12:54;16.75;;;5.28;;
72573;SDS011;60603;52.548;13.420;2023-02-12T01:15:20;16.73;;;4.20;;
72573;SDS011;60603;52.548;13.420;2023-02-12T01:17:46;17.80;;;5.22;;
72573;SDS011;60603;52.548;13.420;2023-02-12T01:20:13;11.35;;;4.30;;
72573;SDS011;60603;52.548;13.420;2023-02-12T01:22:42;18.73;;;5.10;;
72573;SDS011;60603;52.548;13.420;2023-02-12T01:25:08;17.75;;;4.50;;
72573;SDS011;60603;52.548;13.420;2023-02-12T01:27:34;13.15;;;4.57;;
72573;SDS011;60603;52.548;13.420;2023-02-12T01:30:00;16.98;;;4.78;;
72573;SDS011;60603;52.548;13.420;2023-02-12T01:32:26;13.93;;;4.13;;
72573;SDS011;60603;52.548;13.420;2023-02-12T01:34:52;15.68;;;4.70;;
72573;SDS011;60603;52.548;13.420;2023-02-12T01:37:18;14.68;;;4.53;;
72573;SDS011;60603;52.548;13.420;2023-02-12T01:39:44;13.57;;;4.88;;
72573;SDS011;60603;52.548;13.420;2023-02-12T01:42:14;15.90;;;5.72;;
72573;SDS011;60603;52.548;13.420;2023-02-12T01:47:10;14.93;;;5.10;;
72573;SDS011;60603;52.548;13.420;2023-02-12T01:49:42;14.95;;;3.85;;
72573;SDS011;60603;52.548;13.420;2023-02-12T01:52:27;14.02;;;3.90;;
72573;SDS011;60603;52.548;13.420;2023-02-12T01:54:55;21.52;;;5.07;;
72573;SDS011;60603;52.548;13.420;2023-02-12T01:57:25;14.60;;;3.95;;
72573;SDS011;60603;52.548;13.420;2023-02-12T01:59:53;15.80;;;4.18;;
72573;SDS011;60603;52.548;13.420;2023-02-12T02:02:22;17.10;;;4.30;;
72573;SDS011;60603;52.548;13.420;2023-02-12T02:04:49;18.55;;;4.82;;
72573;SDS011;60603;52.548;13.420;2023-02-12T02:07:17;16.88;;;4.55;;
72573;SDS011;60603;52.548;13.420;2023-02-12T02:09:43;19.17;;;4.40;;
72573;SDS011;60603;52.548;13.420;2023-02-12T02:12:09;17.60;;;4.65;;
72573;SDS011;60603;52.548;13.420;2023-02-12T02:14:54;18.95;;;5.15;;
72573;SDS011;60603;52.548;13.420;2023-02-12T02:17:28;16.75;;;5.38;;
72573;SDS011;60603;52.548;13.420;2023-02-12T02:28:21;11.23;;;4.15;;
72573;SDS011;60603;52.548;13.420;2023-02-12T02:39:02;15.07;;;4.90;;
72573;SDS011;60603;52.548;13.420;2023-02-12T02:41:34;13.63;;;3.78;;
72573;SDS011;60603;52.548;13.420;2023-02-12T02:46:31;18.38;;;4.60;;
72573;SDS011;60603;52.548;13.420;2023-02-12T02:49:01;18.42;;;4.43;;
72573;SDS011;60603;52.548;13.420;2023-02-12T02:51:33;16.15;;;4.05;;
72573;SDS011;60603;52.548;13.420;2023-02-12T02:54:12;17.55;;;4.28;;
72573;SDS011;60603;52.548;13.420;2023-02-12T02:56:42;18.35;;;3.70;;
72573;SDS011;60603;52.548;13.420;2023-02-12T02:59:11;15.55;;;4.22;;
72573;SDS011;60603;52.548;13.420;2023-02-12T03:04:34;15.00;;;4.82;;
72573;SDS011;60603;52.548;13.420;2023-02-12T03:07:10;16.00;;;5.18;;
72573;SDS011;60603;52.548;13.420;2023-02-12T03:09:41;14.93;;;4.57;;
72573;SDS011;60603;52.548;13.420;2023-02-12T03:12:20;14.30;;;4.20;;
72573;SDS011;60603;52.548;13.420;2023-02-12T03:14:52;16.85;;;5.05;;
72573;SDS011;60603;52.548;13.420;2023-02-12T03:17:27;16.02;;;4.82;;
72573;SDS011;60603;52.548;13.420;2023-02-12T03:19:57;15.82;;;4.75;;
72573;SDS011;60603;52.548;13.420;2023-02-12T03:22:32;16.10;;;4.72;;
72573;SDS011;60603;52.548;13.420;2023-02-12T03:25:03;18.60;;;4.53;;
72573;SDS011;60603;52.548;13.420;2023-02-12T03:27:37;10.38;;;4.20;;
72573;SDS011;60603;52.548;13.420;2023-02-12T03:30:06;11.50;;;3.60;;
72573;SDS011;60603;52.548;13.420;2023-02-12T03:32:36;20.55;;;5.50;;
72573;SDS011;60603;52.548;13.420;2023-02-12T03:35:24;14.80;;;4.68;;
72573;SDS011;60603;52.548;13.420;2023-02-12T03:43:47;15.70;;;4.50;;
72573;SDS011;60603;52.548;13.420;2023-02-12T03:46:32;15.90;;;4.50;;
72573;SDS011;60603;52.548;13.420;2023-02-12T03:54:07;18.45;;;5.25;;
72573;SDS011;60603;52.548;13.420;2023-02-12T03:56:39;15.73;;;5.32;;
72573;SDS011;60603;52.548;13.420;2023-02-12T03:59:09;22.92;;;4.80;;
72573;SDS011;60603;52.548;13.420;2023-02-12T04:01:34;17.13;;;4.70;;
72573;SDS011;60603;52.548;13.420;2023-02-12T04:04:02;18.88;;;4.70;;
72573;SDS011;60603;52.548;13.420;2023-02-12T04:06:29;20.08;;;4.50;;
72573;SDS011;60603;52.548;13.420;2023-02-12T04:09:03;18.27;;;4.65;;
72573;SDS011;60603;52.548;13.420;2023-02-12T04:14:55;12.63;;;4.28;;
72573;SDS011;60603;52.548;13.420;2023-02-12T04:17:39;15.13;;;5.07;;
72573;SDS011;60603;52.548;13.420;2023-02-12T04:31:10;17.63;;;4.97;;
72573;SDS011;60603;52.548;13.420;2023-02-12T04:33:43;15.32;;;4.95;;
72573;SDS011;60603;52.548;13.420;2023-02-12T04:36:22;15.48;;;5.50;;
72573;SDS011;60603;52.548;13.420;2023-02-12T04:38:50;17.48;;;5.20;;
72573;SDS011;60603;52.548;13.420;2023-02-12T04:41:18;20.20;;;5.07;;
72573;SDS011;60603;52.548;13.420;2023-02-12T04:43:44;16.38;;;4.80;;
72573;SDS011;60603;52.548;13.420;2023-02-12T04:46:10;17.05;;;4.97;;
72573;SDS011;60603;52.548;13.420;2023-02-12T04:48:37;15.43;;;4.75;;
72573;SDS011;60603;52.548;13.420;2023-02-12T04:51:27;16.33;;;4.70;;
72573;SDS011;60603;52.548;13.420;2023-02-12T04:53:53;14.90;;;4.57;;
72573;SDS011;60603;52.548;13.420;2023-02-12T04:56:19;13.75;;;4.85;;
72573;SDS011;60603;52.548;13.420;2023-02-12T04:58:45;17.95;;;4.85;;
72573;SDS011;60603;52.548;13.420;2023-02-12T05:01:11;14.63;;;4.63;;
72573;SDS011;60603;52.548;13.420;2023-02-12T05:03:36;16.85;;;4.63;;
72573;SDS011;60603;52.548;13.420;2023-02-12T05:06:03;15.93;;;4.43;;
72573;SDS011;60603;52.548;13.420;2023-02-12T05:08:33;17.27;;;4.32;;
72573;SDS011;60603;52.548;13.420;2023-02-12T05:11:05;10.88;;;3.47;;
72573;SDS011;60603;52.548;13.420;2023-02-12T05:13:32;14.38;;;4.15;;
72573;SDS011;60603;52.548;13.420;2023-02-12T05:15:59;14.65;;;4.00;;
72573;SDS011;60603;52.548;13.420;2023-02-12T05:18:25;14.98;;;4.97;;
72573;SDS011;60603;52.548;13.420;2023-02-12T05:20:57;15.77;;;3.83;;
72573;SDS011;60603;52.548;13.420;2023-02-12T05:23:31;11.50;;;3.45;;
72573;SDS011;60603;52.548;13.420;2023-02-12T05:25:59;13.20;;;3.97;;
72573;SDS011;60603;52.548;13.420;2023-02-12T05:28:25;16.83;;;4.18;;
72573;SDS011;60603;52.548;13.420;2023-02-12T05:30:52;24.85;;;4.38;;
72573;SDS011;60603;52.548;13.420;2023-02-12T05:33:17;14.82;;;4.03;;
72573;SDS011;60603;52.548;13.420;2023-02-12T05:35:43;17.88;;;3.63;;
72573;SDS011;60603;52.548;13.420;2023-02-12T05:38:09;9.20;;;3.28;;
72573;SDS011;60603;52.548;13.420;2023-02-12T05:40:35;16.33;;;4.45;;
72573;SDS011;60603;52.548;13.420;2023-02-12T05:43:01;17.98;;;4.45;;
72573;SDS011;60603;52.548;13.420;2023-02-12T05:45:27;15.75;;;3.85;;
72573;SDS011;60603;52.548;13.420;2023-02-12T05:47:54;16.27;;;4.35;;
72573;SDS011;60603;52.548;13.420;2023-02-12T05:50:20;15.43;;;4.07;;
72573;SDS011;60603;52.548;13.420;2023-02-12T05:52:46;15.73;;;4.70;;
72573;SDS011;60603;52.548;13.420;2023-02-12T05:55:12;18.77;;;4.63;;
72573;SDS011;60603;52.548;13.420;2023-02-12T05:57:38;17.05;;;4.80;;
72573;SDS011;60603;52.548;13.420;2023-02-12T06:00:05;14.57;;;3.55;;
72573;SDS011;60603;52.548;13.420;2023-02-12T06:02:33;18.65;;;6.80;;
72573;SDS011;60603;52.548;13.420;2023-02-12T06:04:59;21.60;;;5.55;;
72573;SDS011;60603;52.548;13.420;2023-02-12T06:07:25;16.17;;;3.55;;
72573;SDS011;60603;52.548;13.420;2023-02-12T06:09:51;14.73;;;3.85;;
72573;SDS011;60603;52.548;13.420;2023-02-12T06:12:17;12.70;;;3.80;;
72573;SDS011;60603;52.548;13.420;2023-02-12T06:14:43;14.63;;;4.55;;
72573;SDS011;60603;52.548;13.420;2023-02-12T06:17:10;12.25;;;3.90;;
72573;SDS011;60603;52.548;13.420;2023-02-12T06:19:36;15.85;;;4.47;;
72573;SDS011;60603;52.548;13.420;2023-02-12T06:22:02;12.55;;;3.85;;
72573;SDS011;60603;52.548;13.420;2023-02-12T06:24:28;15.18;;;4.20;;
72573;SDS011;60603;52.548;13.420;2023-02-12T06:26:53;12.88;;;4.00;;
72573;SDS011;60603;52.548;13.420;2023-02-12T06:29:20;15.85;;;4.85;;
72573;SDS011;60603;52.548;13.420;2023-02-12T06:31:46;15.75;;;3.72;;
72573;SDS011;60603;52.548;13.420;2023-02-12T06:34:12;18.02;;;4.30;;
72573;SDS011;60603;52.548;13.420;2023-02-12T06:36:40;16.42;;;4.55;;
72573;SDS011;60603;52.548;13.420;2023-02-12T06:39:07;14.60;;;3.90;;
72573;SDS011;60603;52.548;13.420;2023-02-12T06:41:33;11.60;;;3.88;;
72573;SDS011;60603;52.548;13.420;2023-02-12T06:43:59;15.57;;;4.15;;
72573;SDS011;60603;52.548;13.420;2023-02-12T06:46:25;14.88;;;3.67;;
72573;SDS011;60603;52.548;13.420;2023-02-12T06:48:51;10.50;;;4.13;;
72573;SDS011;60603;52.548;13.420;2023-02-12T06:51:18;22.70;;;5.40;;
72573;SDS011;60603;52.548;13.420;2023-02-12T06:53:46;18.92;;;4.43;;
72573;SDS011;60603;52.548;13.420;2023-02-12T06:56:12;14.77;;;4.15;;
72573;SDS011;60603;52.548;13.420;2023-02-12T06:58:39;12.70;;;3.63;;
72573;SDS011;60603;52.548;13.420;2023-02-12T07:01:06;14.90;;;4.13;;
72573;SDS011;60603;52.548;13.420;2023-02-12T07:03:43;16.48;;;4.93;;
72573;SDS011;60603;52.548;13.420;2023-02-12T07:06:12;14.38;;;3.80;;
72573;SDS011;60603;52.548;13.420;2023-02-12T07:08:38;17.52;;;4.47;;
72573;SDS011;60603;52.548;13.420;2023-02-12T07:11:05;11.88;;;4.03;;
72573;SDS011;60603;52.548;13.420;2023-02-12T07:13:31;17.70;;;4.32;;
72573;SDS011;60603;52.548;13.420;2023-02-12T07:16:05;17.20;;;4.20;;
72573;SDS011;60603;52.548;13.420;2023-02-12T07:18:33;18.67;;;4.13;;
72573;SDS011;60603;52.548;13.420;2023-02-12T07:20:59;15.32;;;4.82;;
72573;SDS011;60603;52.548;13.420;2023-02-12T07:23:26;14.70;;;4.43;;
72573;SDS011;60603;52.548;13.420;2023-02-12T07:25:58;21.77;;;4.20;;
72573;SDS011;60603;52.548;13.420;2023-02-12T07:28:26;16.65;;;4.57;;
72573;SDS011;60603;52.548;13.420;2023-02-12T07:30:52;16.98;;;4.10;;
72573;SDS011;60603;52.548;13.420;2023-02-12T07:33:18;17.92;;;4.55;;
72573;SDS011;60603;52.548;13.420;2023-02-12T07:35:45;11.02;;;3.58;;
72573;SDS011;60603;52.548;13.420;2023-02-12T07:38:11;15.85;;;4.72;;
72573;SDS011;60603;52.548;13.420;2023-02-12T07:40:37;13.40;;;4.63;;
72573;SDS011;60603;52.548;13.420;2023-02-12T07:43:03;21.77;;;4.97;;
72573;SDS011;60603;52.548;13.420;2023-02-12T07:45:29;14.63;;;4.57;;
72573;SDS011;60603;52.548;13.420;2023-02-12T07:47:55;12.52;;;4.45;;
72573;SDS011;60603;52.548;13.420;2023-02-12T07:50:20;16.30;;;4.03;;
72573;SDS011;60603;52.548;13.420;2023-02-12T07:52:49;13.90;;;4.93;;
72573;SDS011;60603;52.548;13.420;2023-02-12T07:55:15;17.77;;;4.25;;
72573;SDS011;60603;52.548;13.420;2023-02-12T07:57:41;15.02;;;5.50;;
72573;SDS011;60603;52.548;13.420;2023-02-12T08:00:07;15.85;;;5.10;;
72573;SDS011;60603;52.548;13.420;2023-02-12T08:02:34;16.02;;;4.38;;
72573;SDS011;60603;52.548;13.420;2023-02-12T08:05:00;18.13;;;4.05;;
72573;SDS011;60603;52.548;13.420;2023-02-12T08:07:26;13.98;;;3.58;;
72573;SDS011;60603;52.548;13.420;2023-02-12T08:09:52;11.80;;;4.55;;
72573;SDS011;60603;52.548;13.420;2023-02-12T08:12:18;10.77;;;4.32;;
72573;SDS011;60603;52.548;13.420;2023-02-12T08:14:44;15.32;;;3.78;;
72573;SDS011;60603;52.548;13.420;2023-02-12T08:17:10;18.42;;;4.45;;
72573;SDS011;60603;52.548;13.420;2023-02-12T08:19:36;14.32;;;4.10;;
72573;SDS011;60603;52.548;13.420;2023-02-12T08:22:02;13.13;;;4.10;;
72573;SDS011;60603;52.548;13.420;2023-02-12T08:24:29;14.70;;;3.40;;
72573;SDS011;60603;52.548;13.420;2023-02-12T08:26:55;16.27;;;4.10;;
72573;SDS011;60603;52.548;13.420;2023-02-12T08:29:25;16.13;;;4.45;;
72573;SDS011;60603;52.548;13.420;2023-02-12T08:31:57;13.90;;;3.63;;
72573;SDS011;60603;52.548;13.420;2023-02-12T08:34:25;12.73;;;4.25;;
72573;SDS011;60603;52.548;13.420;2023-02-12T08:36:56;12.50;;;3.63;;
72573;SDS011;60603;52.548;13.420;2023-02-12T08:39:22;17.60;;;5.03;;
72573;SDS011;60603;52.548;13.420;2023-02-12T08:41:49;14.40;;;4.05;;
72573;SDS011;60603;52.548;13.420;2023-02-12T08:44:16;16.10;;;3.85;;
72573;SDS011;60603;52.548;13.420;2023-02-12T08:46:43;13.38;;;4.10;;
72573;SDS011;60603;52.548;13.420;2023-02-12T08:49:16;13.88;;;3.97;;
72573;SDS011;60603;52.548;13.420;2023-02-12T08:51:45;17.95;;;3.60;;
72573;SDS011;60603;52.548;13.420;2023-02-12T08:54:15;14.35;;;3.72;;
72573;SDS011;60603;52.548;13.420;2023-02-12T08:56:42;14.23;;;4.88;;
72573;SDS011;60603;52.548;13.420;2023-02-12T08:59:12;14.93;;;3.83;;
72573;SDS011;60603;52.548;13.420;2023-02-12T09:01:39;14.23;;;4.28;;
72573;SDS011;60603;52.548;13.420;2023-02-12T09:04:06;17.27;;;4.07;;
72573;SDS011;60603;52.548;13.420;2023-02-12T09:06:44;12.60;;;4.25;;
72573;SDS011;60603;52.548;13.420;2023-02-12T09:09:10;11.02;;;3.50;;
72573;SDS011;60603;52.548;13.420;2023-02-12T09:11:36;12.10;;;3.78;;
72573;SDS011;60603;52.548;13.420;2023-02-12T09:14:04;13.48;;;3.83;;
72573;SDS011;60603;52.548;13.420;2023-02-12T09:16:32;18.52;;;4.63;;
72573;SDS011;60603;52.548;13.420;2023-02-12T09:18:59;12.02;;;3.97;;
72573;SDS011;60603;52.548;13.420;2023-02-12T09:21:25;12.55;;;3.53;;
72573;SDS011;60603;52.548;13.420;2023-02-12T09:23:51;15.13;;;4.10;;
72573;SDS011;60603;52.548;13.420;2023-02-12T09:26:18;19.52;;;4.65;;
72573;SDS011;60603;52.548;13.420;2023-02-12T09:28:46;16.33;;;3.47;;
72573;SDS011;60603;52.548;13.420;2023-02-12T09:31:18;16.10;;;4.28;;
72573;SDS011;60603;52.548;13.420;2023-02-12T09:33:47;11.73;;;3.15;;
72573;SDS011;60603;52.548;13.420;2023-02-12T09:36:14;13.93;;;4.03;;
72573;SDS011;60603;52.548;13.420;2023-02-12T09:38:41;13.88;;;3.30;;
72573;SDS011;60603;52.548;13.420;2023-02-12T09:43:43;16.73;;;4.10;;
72573;SDS011;60603;52.548;13.420;2023-02-12T09:46:15;13.05;;;3.25;;
72573;SDS011;60603;52.548;13.420;2023-02-12T09:51:38;10.60;;;3.85;;
72573;SDS011;60603;52.548;13.420;2023-02-12T09:54:06;13.65;;;3.55;;
72573;SDS011;60603;52.548;13.420;2023-02-12T09:56:37;11.80;;;3.55;;
72573;SDS011;60603;52.548;13.420;2023-02-12T09:59:05;14.82;;;4.45;;
72573;SDS011;60603;52.548;13.420;2023-02-12T10:01:32;16.83;;;3.70;;
72573;SDS011;60603;52.548;13.420;2023-02-12T10:03:58;15.55;;;5.43;;
72573;SDS011;60603;52.548;13.420;2023-02-12T10:09:54;16.42;;;4.45;;
72573;SDS011;60603;52.548;13.420;2023-02-12T10:15:01;18.13;;;4.15;;
72573;SDS011;60603;52.548;13.420;2023-02-12T10:17:42;15.00;;;4.45;;
72573;SDS011;60603;52.548;13.420;2023-02-12T10:26:29;13.90;;;3.80;;
72573;SDS011;60603;52.548;13.420;2023-02-12T10:28:40;11.50;;;3.40;;
72573;SDS011;60603;52.548;13.420;2023-02-12T10:34:17;12.25;;;3.45;;
72573;SDS011;60603;52.548;13.420;2023-02-12T10:36:45;13.98;;;3.80;;
72573;SDS011;60603;52.548;13.420;2023-02-12T10:44:10;12.10;;;3.53;;
72573;SDS011;60603;52.548;13.420;2023-02-12T10:46:36;13.13;;;3.35;;
72573;SDS011;60603;52.548;13.420;2023-02-12T10:49:02;12.93;;;4.30;;
72573;SDS011;60603;52.548;13.420;2023-02-12T10:56:59;16.05;;;4.55;;
72573;SDS011;60603;52.548;13.420;2023-02-12T10:59:31;13.30;;;4.78;;
72573;SDS011;60603;52.548;13.420;2023-02-12T11:01:58;15.63;;;5.97;;
72573;SDS011;60603;52.548;13.420;2023-02-12T11:06:56;14.52;;;5.15;;
72573;SDS011;60603;52.548;13.420;2023-02-12T11:09:29;16.48;;;5.15;;
72573;SDS011;60603;52.548;13.420;2023-02-12T11:11:59;14.75;;;5.43;;
72573;SDS011;60603;52.548;13.420;2023-02-12T11:14:25;15.73;;;5.93;;
72573;SDS011;60603;52.548;13.420;2023-02-12T11:16:52;14.63;;;5.55;;
72573;SDS011;60603;52.548;13.420;2023-02-12T11:19:23;13.43;;;5.05;;
72573;SDS011;60603;52.548;13.420;2023-02-12T11:21:52;13.88;;;5.68;;
72573;SDS011;60603;52.548;13.420;2023-02-12T11:24:32;15.38;;;5.10;;
72573;SDS011;60603;52.548;13.420;2023-02-12T11:29:40;15.63;;;5.43;;
72573;SDS011;60603;52.548;13.420;2023-02-12T11:32:08;16.52;;;5.82;;
72573;SDS011;60603;52.548;13.420;2023-02-12T11:34:36;15.52;;;5.50;;
72573;SDS011;60603;52.548;13.420;2023-02-12T11:37:02;15.70;;;4.82;;
72573;SDS011;60603;52.548;13.420;2023-02-12T11:39:37;17.02;;;5.45;;
72573;SDS011;60603;52.548;13.420;2023-02-12T11:42:14;15.55;;;5.38;;
72573;SDS011;60603;52.548;13.420;2023-02-12T11:44:48;12.85;;;4.55;;
72573;SDS011;60603;52.548;13.420;2023-02-12T11:47:17;12.15;;;4.70;;
72573;SDS011;60603;52.548;13.420;2023-02-12T11:49:48;15.55;;;4.88;;
72573;SDS011;60603;52.548;13.420;2023-02-12T11:52:19;12.57;;;3.90;;
72573;SDS011;60603;52.548;13.420;2023-02-12T11:54:46;12.63;;;4.25;;
72573;SDS011;60603;52.548;13.420;2023-02-12T12:00:03;13.75;;;4.18;;
72573;SDS011;60603;52.548;13.420;2023-02-12T12:02:37;13.27;;;4.00;;
72573;SDS011;60603;52.548;13.420;2023-02-12T12:05:06;10.15;;;4.00;;
72573;SDS011;60603;52.548;13.420;2023-02-12T12:07:37;10.93;;;4.07;;
72573;SDS011;60603;52.548;13.420;2023-02-12T12:12:52;9.80;;;3.90;;
72573;SDS011;60603;52.548;13.420;2023-02-12T12:24:37;13.30;;;4.28;;
72573;SDS011;60603;52.548;13.420;2023-02-12T12:34:01;8.90;;;3.50;;
72573;SDS011;60603;52.548;13.420;2023-02-12T12:47:33;7.25;;;2.80;;
72573;SDS011;60603;52.548;13.420;2023-02-12T12:53:41;9.20;;;3.33;;
72573;SDS011;60603;52.548;13.420;2023-02-12T13:07:23;8.70;;;3.42;;
72573;SDS011;60603;52.548;13.420;2023-02-12T13:10:02;12.82;;;3.90;;
72573;SDS011;60603;52.548;13.420;2023-02-12T13:15:36;11.68;;;3.80;;
72573;SDS011;60603;52.548;13.420;2023-02-12T13:23:40;8.00;;;3.17;;
72573;SDS011;60603;52.548;13.420;2023-02-12T13:26:32;9.98;;;3.55;;
72573;SDS011;60603;52.548;13.420;2023-02-12T13:29:11;8.68;;;3.50;;
72573;SDS011;60603;52.548;13.420;2023-02-12T13:31:48;9.45;;;3.35;;
72573;SDS011;60603;52.548;13.420;2023-02-12T13:34:16;8.60;;;3.65;;
72573;SDS011;60603;52.548;13.420;2023-02-12T13:36:42;9.23;;;3.55;;
72573;SDS011;60603;52.548;13.420;2023-02-12T13:39:13;10.02;;;3.72;;
72573;SDS011;60603;52.548;13.420;2023-02-12T13:41:44;9.70;;;3.85;;
72573;SDS011;60603;52.548;13.420;2023-02-12T13:44:25;8.48;;;3.20;;
72573;SDS011;60603;52.548;13.420;2023-02-12T13:52:35;7.55;;;3.63;;
72573;SDS011;60603;52.548;13.420;2023-02-12T13:55:25;8.15;;;3.30;;
72573;SDS011;60603;52.548;13.420;2023-02-12T14:01:00;10.32;;;3.83;;
72573;SDS011;60603;52.548;13.420;2023-02-12T14:03:27;9.95;;;2.97;;
72573;SDS011;60603;52.548;13.420;2023-02-12T14:08:36;7.45;;;3.08;;
72573;SDS011;60603;52.548;13.420;2023-02-12T14:11:09;6.53;;;2.70;;
72573;SDS011;60603;52.548;13.420;2023-02-12T14:22:05;6.53;;;2.95;;
72573;SDS011;60603;52.548;13.420;2023-02-12T14:24:55;6.85;;;3.40;;
72573;SDS011;60603;52.548;13.420;2023-02-12T14:37:56;7.45;;;2.92;;
72573;SDS011;60603;52.548;13.420;2023-02-12T14:43:02;8.13;;;2.83;;
72573;SDS011;60603;52.548;13.420;2023-02-12T14:45:33;9.00;;;3.33;;
72573;SDS011;60603;52.548;13.420;2023-02-12T14:48:01;7.00;;;3.08;;
72573;SDS011;60603;52.548;13.420;2023-02-12T14:50:29;7.35;;;2.80;;
72573;SDS011;60603;52.548;13.420;2023-02-12T14:53:06;5.22;;;2.42;;
72573;SDS011;60603;52.548;13.420;2023-02-12T14:55:41;7.30;;;2.22;;
72573;SDS011;60603;52.548;13.420;2023-02-12T14:58:18;8.80;;;2.75;;
72573;SDS011;60603;52.548;13.420;2023-02-12T15:00:45;9.88;;;3.35;;
72573;SDS011;60603;52.548;13.420;2023-02-12T15:05:56;9.15;;;3.80;;
72573;SDS011;60603;52.548;13.420;2023-02-12T15:08:42;6.72;;;3.30;;
72573;SDS011;60603;52.548;13.420;2023-02-12T15:14:14;8.20;;;3.35;;
72573;SDS011;60603;52.548;13.420;2023-02-12T15:24:42;8.20;;;3.53;;
72573;SDS011;60603;52.548;13.420;2023-02-12T15:27:12;11.75;;;3.78;;
72573;SDS011;60603;52.548;13.420;2023-02-12T15:29:40;7.65;;;3.28;;
72573;SDS011;60603;52.548;13.420;2023-02-12T15:32:08;9.95;;;3.75;;
72573;SDS011;60603;52.548;13.420;2023-02-12T15:34:42;11.88;;;4.07;;
72573;SDS011;60603;52.548;13.420;2023-02-12T15:37:15;10.88;;;3.78;;
72573;SDS011;60603;52.548;13.420;2023-02-12T15:39:44;10.80;;;4.00;;
72573;SDS011;60603;52.548;13.420;2023-02-12T15:42:26;12.18;;;4.20;;
72573;SDS011;60603;52.548;13.420;2023-02-12T15:47:34;10.35;;;4.00;;
72573;SDS011;60603;52.548;13.420;2023-02-12T15:50:00;10.70;;;3.70;;
72573;SDS011;60603;52.548;13.420;2023-02-12T15:52:29;8.80;;;3.92;;
72573;SDS011;60603;52.548;13.420;2023-02-12T15:54:59;9.18;;;3.75;;
72573;SDS011;60603;52.548;13.420;2023-02-12T15:57:27;7.93;;;3.78;;
72573;SDS011;60603;52.548;13.420;2023-02-12T15:59:54;10.98;;;3.78;;
72573;SDS011;60603;52.548;13.420;2023-02-12T16:02:25;12.00;;;4.03;;
72573;SDS011;60603;52.548;13.420;2023-02-12T16:04:56;9.55;;;3.58;;
72573;SDS011;60603;52.548;13.420;2023-02-12T16:07:22;8.70;;;3.63;;
72573;SDS011;60603;52.548;13.420;2023-02-12T16:09:49;9.20;;;3.95;;
72573;SDS011;60603;52.548;13.420;2023-02-12T16:12:16;9.57;;;3.90;;
72573;SDS011;60603;52.548;13.420;2023-02-12T16:14:46;12.52;;;5.10;;
72573;SDS011;60603;52.548;13.420;2023-02-12T16:17:21;8.60;;;3.75;;
72573;SDS011;60603;52.548;13.420;2023-02-12T16:19:58;12.43;;;3.95;;
72573;SDS011;60603;52.548;13.420;2023-02-12T16:22:45;9.27;;;3.63;;
72573;SDS011;60603;52.548;13.420;2023-02-12T16:25:17;11.00;;;3.55;;
72573;SDS011;60603;52.548;13.420;2023-02-12T16:30:32;8.15;;;3.25;;
72573;SDS011;60603;52.548;13.420;2023-02-12T16:44:19;8.93;;;3.83;;
72573;SDS011;60603;52.548;13.420;2023-02-12T16:46:43;9.55;;;3.70;;
72573;SDS011;60603;52.548;13.420;2023-02-12T16:49:16;9.30;;;3.78;;
72573;SDS011;60603;52.548;13.420;2023-02-12T16:51:46;9.65;;;2.80;;
72573;SDS011;60603;52.548;13.420;2023-02-12T16:56:54;7.70;;;2.88;;
72573;SDS011;60603;52.548;13.420;2023-02-12T16:59:20;8.15;;;3.75;;
72573;SDS011;60603;52.548;13.420;2023-02-12T17:02:00;7.97;;;3.25;;
72573;SDS011;60603;52.548;13.420;2023-02-12T17:04:28;7.45;;;2.90;;
72573;SDS011;60603;52.548;13.420;2023-02-12T17:06:55;7.45;;;2.72;;
72573;SDS011;60603;52.548;13.420;2023-02-12T17:09:21;10.05;;;2.95;;
72573;SDS011;60603;52.548;13.420;2023-02-12T17:11:47;7.35;;;2.90;;
72573;SDS011;60603;52.548;13.420;2023-02-12T17:14:14;6.93;;;2.72;;
72573;SDS011;60603;52.548;13.420;2023-02-12T17:16:42;8.02;;;2.88;;
72573;SDS011;60603;52.548;13.420;2023-02-12T17:19:08;7.15;;;2.40;;
72573;SDS011;60603;52.548;13.420;2023-02-12T17:21:35;8.82;;;2.53;;
72573;SDS011;60603;52.548;13.420;2023-02-12T17:24:05;6.60;;;2.28;;
72573;SDS011;60603;52.548;13.420;2023-02-12T17:26:39;6.60;;;3.08;;
72573;SDS011;60603;52.548;13.420;2023-02-12T17:29:06;9.43;;;3.92;;
72573;SDS011;60603;52.548;13.420;2023-02-12T17:31:33;12.45;;;6.20;;
72573;SDS011;60603;52.548;13.420;2023-02-12T17:33:59;19.27;;;8.65;;
72573;SDS011;60603;52.548;13.420;2023-02-12T17:36:25;12.45;;;4.65;;
72573;SDS011;60603;52.548;13.420;2023-02-12T17:38:51;18.63;;;7.65;;
72573;SDS011;60603;52.548;13.420;2023-02-12T17:41:17;8.73;;;3.88;;
72573;SDS011;60603;52.548;13.420;2023-02-12T17:43:43;14.73;;;3.65;;
72573;SDS011;60603;52.548;13.420;2023-02-12T17:46:10;9.32;;;3.22;;
72573;SDS011;60603;52.548;13.420;2023-02-12T17:48:41;9.70;;;3.25;;
72573;SDS011;60603;52.548;13.420;2023-02-12T17:51:08;6.60;;;3.30;;
72573;SDS011;60603;52.548;13.420;2023-02-12T17:53:36;6.05;;;2.50;;
72573;SDS011;60603;52.548;13.420;2023-02-12T17:56:03;9.38;;;3.42;;
72573;SDS011;60603;52.548;13.420;2023-02-12T17:58:29;8.52;;;3.10;;
72573;SDS011;60603;52.548;13.420;2023-02-12T18:00:55;7.40;;;3.00;;
72573;SDS011;60603;52.548;13.420;2023-02-12T18:03:22;6.93;;;2.92;;